createdAt,value
2019-06-20T00:00:05.285Z,8
2019-06-20T00:01:02.203Z,8
2019-06-20T00:02:02.384Z,8
2019-06-20T00:03:02.591Z,8
2019-06-20T00:04:01.840Z,7
2019-06-20T00:05:02.027Z,7
2019-06-20T00:06:02.013Z,7
2019-06-20T00:07:02.224Z,7
2019-06-20T00:08:02.483Z,7
2019-06-20T00:09:01.653Z,7
2019-06-20T00:10:02.175Z,8
2019-06-20T00:11:02.134Z,8
2019-06-20T00:12:02.447Z,8
2019-06-20T00:13:01.635Z,8
2019-06-20T00:14:01.802Z,8
2019-06-20T00:15:02.181Z,8
2019-06-20T00:16:02.318Z,10
2019-06-20T00:17:02.603Z,10
2019-06-20T00:18:01.739Z,10
2019-06-20T00:19:01.957Z,10
2019-06-20T00:20:02.262Z,10
2019-06-20T00:21:02.397Z,10
2019-06-20T00:22:01.702Z,10
2019-06-20T00:23:01.886Z,10
2019-06-20T00:24:02.183Z,10
2019-06-20T00:25:03.333Z,10
2019-06-20T00:26:02.313Z,10
2019-06-20T00:27:02.555Z,10
2019-06-20T00:28:01.874Z,12
2019-06-20T00:29:02.087Z,12
2019-06-20T00:30:02.304Z,12
2019-06-20T00:31:02.542Z,12
2019-06-20T00:32:01.754Z,12
2019-06-20T00:33:02.039Z,12
2019-06-20T00:34:02.212Z,9
2019-06-20T00:35:02.577Z,9
2019-06-20T00:36:01.753Z,9
2019-06-20T00:37:01.935Z,9
2019-06-20T00:38:02.127Z,9
2019-06-20T00:39:02.355Z,9
2019-06-20T00:40:02.768Z,14
2019-06-20T00:41:01.785Z,14
2019-06-20T00:42:02.043Z,14
2019-06-20T00:43:18.391Z,14
2019-06-20T00:44:02.506Z,14
2019-06-20T00:45:01.913Z,14
2019-06-20T00:46:01.997Z,9
2019-06-20T00:47:02.162Z,9
2019-06-20T00:48:02.397Z,9
2019-06-20T00:49:02.671Z,9
2019-06-20T00:50:01.916Z,9
2019-06-20T00:51:02.231Z,9
2019-06-20T00:52:02.481Z,10
2019-06-20T00:53:01.629Z,10
2019-06-20T00:54:01.902Z,10
2019-06-20T00:55:02.134Z,10
2019-06-20T00:56:02.326Z,10
2019-06-20T00:57:02.639Z,10
2019-06-20T00:58:01.794Z,12
2019-06-20T00:59:02.023Z,12
2019-06-20T01:00:03.550Z,12
2019-06-20T01:01:02.367Z,12
2019-06-20T01:02:01.652Z,12
2019-06-20T01:03:02.336Z,12
2019-06-20T01:04:02.239Z,13
2019-06-20T01:05:02.355Z,13
2019-06-20T01:06:02.630Z,13
2019-06-20T01:07:01.821Z,13
2019-06-20T01:08:02.044Z,13
2019-06-20T01:09:02.295Z,13
2019-06-20T01:10:02.495Z,11
2019-06-20T01:11:01.655Z,11
2019-06-20T01:12:01.841Z,11
2019-06-20T01:13:02.149Z,11
2019-06-20T01:14:02.406Z,11
2019-06-20T01:15:01.661Z,11
2019-06-20T01:16:02.086Z,8
2019-06-20T01:17:02.303Z,8
2019-06-20T01:18:02.532Z,8
2019-06-20T01:19:02.498Z,8
2019-06-20T01:20:01.854Z,8
2019-06-20T01:21:02.020Z,8
2019-06-20T01:22:02.755Z,12
2019-06-20T01:23:02.658Z,12
2019-06-20T01:24:02.037Z,12
2019-06-20T01:25:02.508Z,12
2019-06-20T01:26:01.693Z,12
2019-06-20T01:27:01.963Z,12
2019-06-20T01:28:02.117Z,11
2019-06-20T01:29:02.286Z,11
2019-06-20T01:30:02.538Z,11
2019-06-20T01:31:01.767Z,11
2019-06-20T01:32:01.986Z,11
2019-06-20T01:33:02.213Z,11
2019-06-20T01:34:02.498Z,11
2019-06-20T01:35:01.874Z,11
2019-06-20T01:36:01.947Z,11
2019-06-20T01:37:02.123Z,11
2019-06-20T01:38:02.369Z,11
2019-06-20T01:39:02.592Z,11
2019-06-20T01:40:01.936Z,8
2019-06-20T01:41:06.586Z,8
2019-06-20T01:42:01.941Z,8
2019-06-20T01:43:02.107Z,8
2019-06-20T01:44:02.476Z,8
2019-06-20T01:45:02.538Z,8
2019-06-20T01:46:01.753Z,10
2019-06-20T01:47:01.991Z,10
2019-06-20T01:48:02.178Z,10
2019-06-20T01:49:02.396Z,10
2019-06-20T01:50:02.717Z,10
2019-06-20T01:51:01.887Z,10
2019-06-20T01:52:02.166Z,11
2019-06-20T01:53:02.333Z,11
2019-06-20T01:54:02.633Z,11
2019-06-20T01:55:01.883Z,11
2019-06-20T01:56:02.197Z,11
2019-06-20T01:57:02.312Z,11
2019-06-20T01:58:02.475Z,12
2019-06-20T01:59:01.730Z,12
2019-06-20T02:00:04.783Z,12
2019-06-20T02:01:01.717Z,12
2019-06-20T02:02:02.526Z,12
2019-06-20T02:03:01.876Z,12
2019-06-20T02:04:01.976Z,10
2019-06-20T02:05:02.285Z,10
2019-06-20T02:06:02.483Z,10
2019-06-20T02:07:01.686Z,10
2019-06-20T02:08:01.898Z,10
2019-06-20T02:09:02.178Z,10
2019-06-20T02:10:02.497Z,11
2019-06-20T02:11:02.645Z,11
2019-06-20T02:12:01.894Z,11
2019-06-20T02:13:02.201Z,11
2019-06-20T02:14:07.985Z,11
2019-06-20T02:15:02.646Z,11
2019-06-20T02:16:01.822Z,10
2019-06-20T02:17:01.998Z,10
2019-06-20T02:18:02.235Z,10
2019-06-20T02:19:02.411Z,10
2019-06-20T02:20:01.705Z,10
2019-06-20T02:21:01.998Z,10
2019-06-20T02:22:02.251Z,10
2019-06-20T02:23:02.446Z,10
2019-06-20T02:24:01.648Z,10
2019-06-20T02:25:02.130Z,10
2019-06-20T02:26:02.071Z,10
2019-06-20T02:27:02.248Z,10
2019-06-20T02:28:02.488Z,11
2019-06-20T02:29:01.744Z,11
2019-06-20T02:30:02.068Z,11
2019-06-20T02:31:02.264Z,11
2019-06-20T02:32:02.516Z,11
2019-06-20T02:33:02.456Z,11
2019-06-20T02:34:01.671Z,10
2019-06-20T02:35:02.126Z,10
2019-06-20T02:36:02.179Z,10
2019-06-20T02:37:02.395Z,10
2019-06-20T02:38:02.596Z,10
2019-06-20T02:39:01.784Z,10
2019-06-20T02:40:02.123Z,12
2019-06-20T02:41:02.246Z,12
2019-06-20T02:42:02.414Z,12
2019-06-20T02:43:01.725Z,12
2019-06-20T02:44:01.919Z,12
2019-06-20T02:45:02.420Z,12
2019-06-20T02:46:02.443Z,8
2019-06-20T02:47:02.569Z,8
2019-06-20T02:48:01.911Z,8
2019-06-20T02:49:02.080Z,8
2019-06-20T02:50:02.356Z,8
2019-06-20T02:51:02.606Z,8
2019-06-20T02:52:02.519Z,11
2019-06-20T02:53:01.742Z,11
2019-06-20T02:54:01.969Z,11
2019-06-20T02:55:01.907Z,11
2019-06-20T02:56:01.914Z,11
2019-06-20T02:57:02.287Z,11
2019-06-20T02:58:02.409Z,10
2019-06-20T02:59:01.651Z,10
2019-06-20T03:00:02.175Z,10
2019-06-20T03:01:02.188Z,10
2019-06-20T03:02:02.422Z,10
2019-06-20T03:03:02.591Z,10
2019-06-20T03:04:01.799Z,12
2019-06-20T03:05:02.010Z,12
2019-06-20T03:06:02.292Z,12
2019-06-20T03:07:02.516Z,12
2019-06-20T03:08:01.733Z,12
2019-06-20T03:09:01.996Z,12
2019-06-20T03:10:02.309Z,12
2019-06-20T03:11:02.213Z,12
2019-06-20T03:12:02.418Z,12
2019-06-20T03:13:02.595Z,12
2019-06-20T03:14:01.811Z,12
2019-06-20T03:15:02.127Z,12
2019-06-20T03:16:02.278Z,11
2019-06-20T03:17:02.454Z,11
2019-06-20T03:18:01.614Z,11
2019-06-20T03:19:01.779Z,11
2019-06-20T03:20:02.225Z,11
2019-06-20T03:21:02.227Z,11
2019-06-20T03:22:02.423Z,8
2019-06-20T03:23:01.698Z,8
2019-06-20T03:24:02.004Z,8
2019-06-20T03:25:02.371Z,8
2019-06-20T03:26:02.454Z,8
2019-06-20T03:27:01.686Z,8
2019-06-20T03:28:01.939Z,11
2019-06-20T03:29:02.160Z,11
2019-06-20T03:30:02.513Z,11
2019-06-20T03:31:02.631Z,11
2019-06-20T03:32:01.869Z,11
2019-06-20T03:33:02.102Z,11
2019-06-20T03:34:02.336Z,11
2019-06-20T03:35:02.583Z,11
2019-06-20T03:36:01.916Z,11
2019-06-20T03:37:01.996Z,11
2019-06-20T03:38:02.217Z,11
2019-06-20T03:39:02.428Z,11
2019-06-20T03:40:01.901Z,8
2019-06-20T03:41:01.858Z,8
2019-06-20T03:42:02.094Z,8
2019-06-20T03:43:02.274Z,8
2019-06-20T03:44:01.626Z,8
2019-06-20T03:45:03.047Z,8
2019-06-20T03:46:02.311Z,11
2019-06-20T03:47:02.462Z,11
2019-06-20T03:48:01.731Z,11
2019-06-20T03:49:01.865Z,11
2019-06-20T03:50:02.230Z,11
2019-06-20T03:51:02.409Z,11
2019-06-20T03:52:02.479Z,8
2019-06-20T03:53:01.715Z,8
2019-06-20T03:54:01.936Z,8
2019-06-20T03:55:02.169Z,8
2019-06-20T03:56:02.422Z,8
2019-06-20T03:57:02.563Z,8
2019-06-20T03:58:01.776Z,12
2019-06-20T03:59:01.990Z,12
2019-06-20T04:00:04.182Z,12
2019-06-20T04:01:01.947Z,12
2019-06-20T04:02:02.169Z,12
2019-06-20T04:03:02.404Z,12
2019-06-20T04:04:02.562Z,12
2019-06-20T04:05:01.833Z,12
2019-06-20T04:06:02.167Z,12
2019-06-20T04:07:02.363Z,12
2019-06-20T04:08:02.578Z,12
2019-06-20T04:09:01.756Z,12
2019-06-20T04:10:02.036Z,14
2019-06-20T04:11:02.547Z,14
2019-06-20T04:12:02.522Z,14
2019-06-20T04:13:01.763Z,14
2019-06-20T04:14:01.837Z,14
2019-06-20T04:15:19.745Z,14
2019-06-20T04:16:02.372Z,12
2019-06-20T04:17:02.548Z,12
2019-06-20T04:18:01.865Z,12
2019-06-20T04:19:02.020Z,12
2019-06-20T04:20:02.264Z,12
2019-06-20T04:21:02.448Z,12
2019-06-20T04:22:02.628Z,10
2019-06-20T04:23:01.875Z,10
2019-06-20T04:24:02.070Z,10
2019-06-20T04:25:02.476Z,10
2019-06-20T04:26:01.705Z,10
2019-06-20T04:27:01.840Z,10
2019-06-20T04:28:02.100Z,10
2019-06-20T04:29:02.224Z,10
2019-06-20T04:30:02.502Z,10
2019-06-20T04:31:01.690Z,10
2019-06-20T04:32:01.894Z,10
2019-06-20T04:33:02.144Z,10
2019-06-20T04:34:02.342Z,11
2019-06-20T04:35:02.595Z,11
2019-06-20T04:36:01.970Z,11
2019-06-20T04:37:01.992Z,11
2019-06-20T04:38:02.145Z,11
2019-06-20T04:39:19.808Z,11
2019-06-20T04:40:02.717Z,15
2019-06-20T04:41:01.878Z,15
2019-06-20T04:42:02.088Z,15
2019-06-20T04:43:02.350Z,15
2019-06-20T04:44:01.732Z,15
2019-06-20T04:45:01.990Z,15
2019-06-20T04:46:02.159Z,16
2019-06-20T04:47:02.384Z,16
2019-06-20T04:48:01.628Z,16
2019-06-20T04:49:01.891Z,16
2019-06-20T04:50:02.189Z,16
2019-06-20T04:51:02.299Z,16
2019-06-20T04:52:02.174Z,12
2019-06-20T04:53:02.310Z,12
2019-06-20T04:54:02.578Z,12
2019-06-20T04:55:01.991Z,12
2019-06-20T04:56:06.098Z,12
2019-06-20T04:57:02.348Z,12
2019-06-20T04:58:02.674Z,15
2019-06-20T04:59:01.823Z,15
2019-06-20T05:00:03.523Z,15
2019-06-20T05:01:02.562Z,15
2019-06-20T05:02:02.584Z,15
2019-06-20T05:03:01.866Z,15
2019-06-20T05:04:01.816Z,14
2019-06-20T05:05:02.432Z,14
2019-06-20T05:06:02.340Z,14
2019-06-20T05:07:02.576Z,14
2019-06-20T05:08:02.480Z,14
2019-06-20T05:09:01.775Z,14
2019-06-20T05:10:01.969Z,14
2019-06-20T05:11:02.196Z,14
2019-06-20T05:12:02.356Z,14
2019-06-20T05:13:02.565Z,14
2019-06-20T05:14:01.763Z,14
2019-06-20T05:15:02.056Z,14
2019-06-20T05:16:01.875Z,12
2019-06-20T05:17:02.109Z,12
2019-06-20T05:18:02.328Z,12
2019-06-20T05:19:02.579Z,12
2019-06-20T05:20:01.875Z,12
2019-06-20T05:21:02.041Z,12
2019-06-20T05:22:02.350Z,11
2019-06-20T05:23:02.501Z,11
2019-06-20T05:24:01.761Z,11
2019-06-20T05:25:02.055Z,11
2019-06-20T05:26:02.248Z,11
2019-06-20T05:27:02.399Z,11
2019-06-20T05:28:02.675Z,10
2019-06-20T05:29:05.781Z,10
2019-06-20T05:30:02.157Z,10
2019-06-20T05:31:01.869Z,10
2019-06-20T05:32:02.059Z,10
2019-06-20T05:33:01.903Z,10
2019-06-20T05:34:02.197Z,10
2019-06-20T05:35:03.491Z,10
2019-06-20T05:36:02.626Z,10
2019-06-20T05:37:01.800Z,10
2019-06-20T05:38:02.169Z,10
2019-06-20T05:39:02.276Z,10
2019-06-20T05:40:02.497Z,10
2019-06-20T05:41:02.560Z,10
2019-06-20T05:42:01.696Z,10
2019-06-20T05:43:01.873Z,10
2019-06-20T05:44:02.088Z,10
2019-06-20T05:45:02.084Z,10
2019-06-20T05:46:11.321Z,10
2019-06-20T05:47:14.244Z,10
2019-06-20T05:48:02.610Z,10
2019-06-20T05:49:01.814Z,10
2019-06-20T05:50:02.162Z,10
2019-06-20T05:51:02.257Z,10
2019-06-20T05:52:02.429Z,12
2019-06-20T05:53:01.684Z,12
2019-06-20T05:54:01.868Z,12
2019-06-20T05:55:02.069Z,12
2019-06-20T05:56:02.308Z,12
2019-06-20T05:57:04.968Z,12
2019-06-20T05:58:01.798Z,8
2019-06-20T05:59:01.982Z,8
2019-06-20T06:00:04.041Z,8
2019-06-20T06:01:01.715Z,8
2019-06-20T06:02:01.907Z,8
2019-06-20T06:03:02.208Z,8
2019-06-20T06:04:02.459Z,11
2019-06-20T06:05:02.725Z,11
2019-06-20T06:06:01.903Z,11
2019-06-20T06:07:02.084Z,11
2019-06-20T06:08:02.279Z,11
2019-06-20T06:09:02.546Z,11
2019-06-20T06:10:05.760Z,12
2019-06-20T06:11:01.906Z,12
2019-06-20T06:12:02.042Z,12
2019-06-20T06:13:03.424Z,12
2019-06-20T06:14:02.458Z,12
2019-06-20T06:15:01.753Z,12
2019-06-20T06:16:01.842Z,12
2019-06-20T06:17:02.208Z,12
2019-06-20T06:18:02.688Z,12
2019-06-20T06:19:02.484Z,12
2019-06-20T06:20:01.955Z,12
2019-06-20T06:21:02.384Z,12
2019-06-20T06:22:02.566Z,10
2019-06-20T06:23:01.759Z,10
2019-06-20T06:24:02.096Z,10
2019-06-20T06:25:02.294Z,10
2019-06-20T06:26:02.399Z,10
2019-06-20T06:27:02.198Z,10
2019-06-20T06:28:02.412Z,8
2019-06-20T06:29:02.343Z,8
2019-06-20T06:30:02.502Z,8
2019-06-20T06:31:01.711Z,8
2019-06-20T06:32:02.007Z,8
2019-06-20T06:33:02.211Z,9
2019-06-20T06:34:02.001Z,11
2019-06-20T06:35:02.343Z,11
2019-06-20T06:36:02.537Z,11
2019-06-20T06:37:01.685Z,11
2019-06-20T06:38:01.880Z,11
2019-06-20T06:39:02.116Z,9
2019-06-20T06:40:02.463Z,8
2019-06-20T06:41:02.621Z,8
2019-06-20T06:42:01.801Z,8
2019-06-20T06:43:01.997Z,8
2019-06-20T06:44:01.775Z,8
2019-06-20T06:45:02.234Z,9
2019-06-20T06:46:02.372Z,8
2019-06-20T06:47:02.508Z,8
2019-06-20T06:48:01.790Z,8
2019-06-20T06:49:02.086Z,8
2019-06-20T06:50:02.354Z,8
2019-06-20T06:51:02.525Z,7
2019-06-20T06:52:01.820Z,15
2019-06-20T06:53:01.976Z,15
2019-06-20T06:54:02.279Z,15
2019-06-20T06:55:02.475Z,15
2019-06-20T06:56:01.753Z,15
2019-06-20T06:57:01.926Z,6
2019-06-20T06:58:02.213Z,12
2019-06-20T06:59:02.429Z,12
2019-06-20T07:00:03.221Z,12
2019-06-20T07:01:01.985Z,12
2019-06-20T07:02:02.168Z,12
2019-06-20T07:03:02.431Z,9
2019-06-20T07:04:02.572Z,12
2019-06-20T07:05:02.164Z,12
2019-06-20T07:06:01.651Z,12
2019-06-20T07:07:01.891Z,12
2019-06-20T07:08:02.136Z,12
2019-06-20T07:09:02.322Z,11
2019-06-20T07:10:02.495Z,11
2019-06-20T07:11:01.633Z,11
2019-06-20T07:12:01.816Z,11
2019-06-20T07:13:02.152Z,11
2019-06-20T07:14:02.701Z,11
2019-06-20T07:15:02.516Z,7
2019-06-20T07:16:01.852Z,10
2019-06-20T07:17:01.896Z,10
2019-06-20T07:18:02.164Z,10
2019-06-20T07:19:02.486Z,10
2019-06-20T07:20:02.670Z,10
2019-06-20T07:21:02.060Z,3
2019-06-20T07:22:02.145Z,10
2019-06-20T07:23:02.115Z,10
2019-06-20T07:24:02.604Z,10
2019-06-20T07:25:01.814Z,10
2019-06-20T07:26:02.157Z,10
2019-06-20T07:27:02.332Z,7
2019-06-20T07:28:02.594Z,14
2019-06-20T07:29:01.956Z,14
2019-06-20T07:30:02.181Z,14
2019-06-20T07:31:02.371Z,14
2019-06-20T07:32:02.537Z,14
2019-06-20T07:33:01.890Z,6
2019-06-20T07:34:01.982Z,8
2019-06-20T07:35:02.211Z,8
2019-06-20T07:36:02.277Z,8
2019-06-20T07:37:02.485Z,8
2019-06-20T07:38:01.634Z,8
2019-06-20T07:39:01.875Z,10
2019-06-20T07:40:02.107Z,10
2019-06-20T07:41:02.294Z,10
2019-06-20T07:42:02.570Z,10
2019-06-20T07:43:01.777Z,10
2019-06-20T07:44:02.173Z,10
2019-06-20T07:45:02.446Z,6
2019-06-20T07:46:03.686Z,10
2019-06-20T07:47:18.210Z,10
2019-06-20T07:48:01.964Z,10
2019-06-20T07:49:02.254Z,10
2019-06-20T07:50:02.553Z,10
2019-06-20T07:51:01.776Z,9
2019-06-20T07:52:02.019Z,11
2019-06-20T07:53:03.389Z,11
2019-06-20T07:54:02.323Z,11
2019-06-20T07:55:02.624Z,11
2019-06-20T07:56:01.772Z,11
2019-06-20T07:57:01.960Z,7
2019-06-20T07:58:01.790Z,11
2019-06-20T07:59:02.086Z,11
2019-06-20T08:00:04.070Z,11
2019-06-20T08:01:01.916Z,11
2019-06-20T08:02:02.130Z,11
2019-06-20T08:03:01.894Z,9
2019-06-20T08:04:02.315Z,10
2019-06-20T08:05:02.521Z,10
2019-06-20T08:06:01.763Z,10
2019-06-20T08:07:01.805Z,10
2019-06-20T08:08:02.042Z,10
2019-06-20T08:09:02.262Z,7
2019-06-20T08:10:03.150Z,7
2019-06-20T08:11:01.862Z,7
2019-06-20T08:12:01.998Z,7
2019-06-20T08:13:02.237Z,7
2019-06-20T08:14:02.526Z,7
2019-06-20T08:15:16.227Z,9
2019-06-20T08:16:04.441Z,8
2019-06-20T08:17:01.685Z,8
2019-06-20T08:18:01.953Z,8
2019-06-20T08:19:02.207Z,8
2019-06-20T08:20:02.113Z,8
2019-06-20T08:21:02.394Z,9
2019-06-20T08:22:02.169Z,10
2019-06-20T08:23:02.433Z,10
2019-06-20T08:24:01.655Z,10
2019-06-20T08:25:03.608Z,10
2019-06-20T08:26:02.879Z,10
2019-06-20T08:27:04.952Z,9
2019-06-20T08:28:02.803Z,10
2019-06-20T08:29:21.367Z,10
2019-06-20T08:30:05.122Z,10
2019-06-20T08:31:02.923Z,10
2019-06-20T08:32:04.424Z,10
2019-06-20T08:33:12.268Z,6
2019-06-20T08:34:02.605Z,11
2019-06-20T08:35:02.783Z,11
2019-06-20T08:36:02.533Z,11
2019-06-20T08:37:02.712Z,11
2019-06-20T08:38:07.038Z,11
2019-06-20T08:39:02.987Z,11
2019-06-20T08:40:02.454Z,14
2019-06-20T08:41:02.553Z,14
2019-06-20T08:42:02.431Z,14
2019-06-20T08:43:04.031Z,14
2019-06-20T08:44:02.524Z,14
2019-06-20T08:45:02.079Z,10
2019-06-20T08:46:02.283Z,16
2019-06-20T08:47:03.774Z,16
2019-06-20T08:48:04.607Z,16
2019-06-20T08:49:01.915Z,16
2019-06-20T08:50:03.772Z,16
2019-06-20T08:51:02.489Z,7
2019-06-20T08:52:01.631Z,12
2019-06-20T08:53:03.547Z,12
2019-06-20T08:54:03.729Z,12
2019-06-20T08:55:03.650Z,12
2019-06-20T08:56:03.576Z,12
2019-06-20T08:57:03.482Z,9
2019-06-20T08:58:05.409Z,10
2019-06-20T08:59:02.927Z,10
2019-06-20T09:09:02.736Z,9
2019-06-20T09:10:02.269Z,11
2019-06-20T09:11:02.112Z,11
2019-06-20T09:12:02.747Z,11
2019-06-20T09:13:04.101Z,11
2019-06-20T09:14:04.389Z,11
2019-06-20T09:15:02.969Z,6
2019-06-20T09:16:03.393Z,13
2019-06-20T09:17:03.271Z,13
2019-06-20T09:18:03.333Z,13
2019-06-20T09:19:02.868Z,13
2019-06-20T09:20:03.236Z,13
2019-06-20T09:21:02.577Z,9
2019-06-20T09:22:01.802Z,15
2019-06-20T09:23:03.588Z,15
2019-06-20T09:24:02.457Z,15
2019-06-20T09:25:03.232Z,15
2019-06-20T09:26:02.270Z,15
2019-06-20T09:27:02.151Z,11
2019-06-20T09:28:03.015Z,11
2019-06-20T09:29:04.074Z,11
2019-06-20T09:30:03.883Z,11
2019-06-20T09:31:04.388Z,11
2019-06-20T09:32:02.534Z,11
2019-06-20T09:33:01.810Z,10
2019-06-20T09:34:05.728Z,8
2019-06-20T09:35:03.243Z,8
2019-06-20T09:36:04.042Z,8
2019-06-20T09:37:01.777Z,8
2019-06-20T09:38:03.322Z,8
2019-06-20T09:39:03.746Z,9
2019-06-20T09:40:03.916Z,12
2019-06-20T09:41:01.676Z,12
2019-06-20T09:42:03.711Z,12
2019-06-20T09:43:03.245Z,12
2019-06-20T09:44:03.442Z,12
2019-06-20T09:45:03.227Z,7
2019-06-20T09:46:02.940Z,8
2019-06-20T09:47:02.824Z,8
2019-06-20T09:48:03.073Z,8
2019-06-20T09:49:03.080Z,8
2019-06-20T09:50:02.439Z,8
2019-06-20T09:51:02.644Z,7
2019-06-20T09:52:01.830Z,8
2019-06-20T09:53:02.025Z,8
2019-06-20T09:54:02.316Z,8
2019-06-20T09:55:02.672Z,8
2019-06-20T09:56:01.694Z,8
2019-06-20T09:57:02.308Z,3
2019-06-20T09:58:02.552Z,7
2019-06-20T09:59:01.919Z,7
2019-06-20T10:00:11.087Z,7
2019-06-20T10:01:02.479Z,7
2019-06-20T10:02:02.589Z,7
2019-06-20T10:03:01.909Z,6
2019-06-20T10:04:02.417Z,6
2019-06-20T10:05:02.370Z,6
2019-06-20T10:06:14.880Z,6
2019-06-20T10:07:01.810Z,6
2019-06-20T10:08:02.058Z,6
2019-06-20T10:09:02.371Z,5
2019-06-20T10:10:02.554Z,6
2019-06-20T10:11:01.755Z,6
2019-06-20T10:12:02.020Z,6
2019-06-20T10:13:02.315Z,6
2019-06-20T10:14:02.568Z,6
2019-06-20T10:15:01.678Z,2
2019-06-20T10:16:01.902Z,7
2019-06-20T10:17:01.946Z,7
2019-06-20T10:18:02.140Z,7
2019-06-20T10:19:02.335Z,7
2019-06-20T10:20:02.683Z,7
2019-06-20T10:21:01.836Z,3
2019-06-20T10:22:02.043Z,6
2019-06-20T10:23:02.296Z,6
2019-06-20T10:24:02.504Z,6
2019-06-20T10:25:01.853Z,6
2019-06-20T10:26:01.937Z,6
2019-06-20T10:27:01.952Z,3
2019-06-20T10:28:01.868Z,6
2019-06-20T10:29:02.067Z,6
2019-06-20T10:30:14.954Z,6
2019-06-20T10:31:02.489Z,6
2019-06-20T10:32:01.820Z,6
2019-06-20T10:33:02.041Z,3
2019-06-20T10:34:02.188Z,6
2019-06-20T10:35:02.445Z,6
2019-06-20T10:36:01.727Z,6
2019-06-20T10:37:02.021Z,6
2019-06-20T10:38:02.196Z,6
2019-06-20T10:39:02.465Z,5
2019-06-20T10:40:01.722Z,4
2019-06-20T10:41:01.881Z,4
2019-06-20T10:42:02.111Z,4
2019-06-20T10:43:02.329Z,4
2019-06-20T10:44:02.536Z,4
2019-06-20T10:45:01.915Z,3
2019-06-20T10:46:02.169Z,4
2019-06-20T10:47:02.767Z,4
2019-06-20T10:48:02.615Z,4
2019-06-20T10:49:01.834Z,4
2019-06-20T10:50:02.067Z,4
2019-06-20T10:51:02.256Z,3
2019-06-20T10:52:02.105Z,4
2019-06-20T10:53:02.225Z,4
2019-06-20T10:54:02.495Z,4
2019-06-20T10:55:01.897Z,4
2019-06-20T10:56:01.972Z,4
2019-06-20T10:57:02.187Z,3
2019-06-20T10:58:02.405Z,4
2019-06-20T10:59:02.557Z,4
2019-06-20T11:00:04.207Z,4
2019-06-20T11:01:02.148Z,4
2019-06-20T11:02:02.246Z,4
2019-06-20T11:03:02.534Z,2
2019-06-20T11:04:01.724Z,6
2019-06-20T11:05:02.048Z,6
2019-06-20T11:06:02.273Z,6
2019-06-20T11:07:02.402Z,6
2019-06-20T11:08:02.615Z,6
2019-06-20T11:09:01.827Z,1
2019-06-20T11:10:02.237Z,3
2019-06-20T11:11:02.363Z,3
2019-06-20T11:12:02.649Z,3
2019-06-20T11:13:01.848Z,3
2019-06-20T11:14:02.064Z,3
2019-06-20T11:15:02.306Z,2
2019-06-20T11:16:02.507Z,4
2019-06-20T11:17:01.745Z,4
2019-06-20T11:18:02.576Z,4
2019-06-20T11:19:02.250Z,4
2019-06-20T11:20:03.323Z,4
2019-06-20T11:21:01.805Z,2
2019-06-20T11:22:02.103Z,4
2019-06-20T11:23:02.145Z,4
2019-06-20T11:24:02.439Z,4
2019-06-20T11:25:02.746Z,4
2019-06-20T11:26:02.082Z,4
2019-06-20T11:27:02.325Z,2
2019-06-20T11:28:02.668Z,3
2019-06-20T11:29:01.846Z,3
2019-06-20T11:30:02.054Z,3
2019-06-20T11:31:02.172Z,3
2019-06-20T11:32:02.400Z,3
2019-06-20T11:33:02.645Z,2
2019-06-20T11:34:01.889Z,4
2019-06-20T11:35:02.103Z,4
2019-06-20T11:36:02.254Z,4
2019-06-20T11:37:02.504Z,4
2019-06-20T11:38:01.801Z,4
2019-06-20T11:39:02.160Z,2
2019-06-20T11:40:02.356Z,3
2019-06-20T11:41:02.615Z,3
2019-06-20T11:42:01.705Z,3
2019-06-20T11:43:01.978Z,3
2019-06-20T11:44:02.156Z,3
2019-06-20T11:45:02.388Z,1
2019-06-20T11:46:02.238Z,3
2019-06-20T11:47:02.380Z,3
2019-06-20T11:48:02.689Z,3
2019-06-20T11:49:01.771Z,3
2019-06-20T11:50:02.619Z,3
2019-06-20T11:51:01.977Z,1
2019-06-20T11:52:02.119Z,3
2019-06-20T11:53:02.315Z,3
2019-06-20T11:54:02.623Z,3
2019-06-20T11:55:02.158Z,3
2019-06-20T11:56:02.592Z,3
2019-06-20T11:57:02.468Z,2
2019-06-20T11:58:01.704Z,3
2019-06-20T11:59:01.986Z,3
2019-06-20T12:00:03.901Z,3
2019-06-20T12:01:04.536Z,3
2019-06-20T12:02:01.905Z,3
2019-06-20T12:03:02.176Z,1
2019-06-20T12:04:02.398Z,2
2019-06-20T12:05:01.774Z,2
2019-06-20T12:06:01.912Z,2
2019-06-20T12:07:02.111Z,2
2019-06-20T12:08:02.331Z,2
2019-06-20T12:09:02.593Z,1
2019-06-20T12:10:01.881Z,3
2019-06-20T12:11:02.099Z,3
2019-06-20T12:12:02.199Z,3
2019-06-20T12:13:02.417Z,3
2019-06-20T12:14:01.648Z,3
2019-06-20T12:15:01.932Z,2
2019-06-20T12:16:02.136Z,3
2019-06-20T12:17:02.347Z,3
2019-06-20T12:18:02.782Z,3
2019-06-20T12:19:01.911Z,3
2019-06-20T12:20:02.154Z,3
2019-06-20T12:21:02.309Z,2
2019-06-20T12:22:02.640Z,2
2019-06-20T12:23:01.803Z,2
2019-06-20T12:24:02.088Z,2
2019-06-20T12:25:02.224Z,2
2019-06-20T12:26:02.495Z,2
2019-06-20T12:27:01.694Z,2
2019-06-20T12:28:01.903Z,2
2019-06-20T12:29:02.111Z,2
2019-06-20T12:30:02.417Z,2
2019-06-20T12:31:01.777Z,2
2019-06-20T12:32:01.795Z,2
2019-06-20T12:33:02.319Z,2
2019-06-20T12:34:02.301Z,2
2019-06-20T12:35:02.529Z,2
2019-06-20T12:36:01.753Z,2
2019-06-20T12:37:02.001Z,2
2019-06-20T12:38:02.298Z,2
2019-06-20T12:39:02.449Z,1
2019-06-20T12:40:01.739Z,2
2019-06-20T12:41:01.951Z,2
2019-06-20T12:42:02.176Z,2
2019-06-20T12:43:02.552Z,2
2019-06-20T12:44:02.670Z,2
2019-06-20T12:45:01.809Z,2
2019-06-20T12:46:02.063Z,3
2019-06-20T12:47:02.237Z,3
2019-06-20T12:48:02.620Z,3
2019-06-20T12:49:01.689Z,3
2019-06-20T12:50:02.137Z,3
2019-06-20T12:51:02.266Z,1
2019-06-20T12:52:02.518Z,4
2019-06-20T12:53:01.699Z,4
2019-06-20T12:54:01.931Z,4
2019-06-20T12:55:02.159Z,4
2019-06-20T12:56:02.393Z,4
2019-06-20T12:57:02.124Z,2
2019-06-20T12:58:02.380Z,3
2019-06-20T12:59:02.167Z,3
2019-06-20T13:00:05.113Z,3
2019-06-20T13:01:01.894Z,3
2019-06-20T13:02:02.021Z,3
2019-06-20T13:03:02.207Z,1
2019-06-20T13:04:02.451Z,2
2019-06-20T13:05:01.680Z,2
2019-06-20T13:06:01.868Z,2
2019-06-20T13:07:02.098Z,2
2019-06-20T13:08:02.357Z,2
2019-06-20T13:09:02.545Z,1
2019-06-20T13:10:01.731Z,2
2019-06-20T13:11:02.063Z,2
2019-06-20T13:12:02.180Z,2
2019-06-20T13:13:02.378Z,2
2019-06-20T13:14:02.592Z,2
2019-06-20T13:15:01.884Z,2
2019-06-20T13:16:02.184Z,2
2019-06-20T13:17:02.341Z,2
2019-06-20T13:18:02.609Z,2
2019-06-20T13:19:01.866Z,2
2019-06-20T13:20:02.141Z,2
2019-06-20T13:21:02.392Z,2
2019-06-20T13:22:02.564Z,2
2019-06-20T13:23:01.802Z,2
2019-06-20T13:24:01.916Z,2
2019-06-20T13:25:02.200Z,2
2019-06-20T13:26:02.442Z,2
2019-06-20T13:27:02.595Z,1
2019-06-20T13:28:01.779Z,3
2019-06-20T13:29:04.907Z,3
2019-06-20T13:30:02.387Z,3
2019-06-20T13:31:02.660Z,3
2019-06-20T13:32:04.992Z,3
2019-06-20T13:33:01.958Z,1
2019-06-20T13:34:02.175Z,3
2019-06-20T13:35:02.515Z,3
2019-06-20T13:36:01.750Z,3
2019-06-20T13:37:01.927Z,3
2019-06-20T13:38:02.148Z,3
2019-06-20T13:39:02.484Z,2
2019-06-20T13:40:02.687Z,4
2019-06-20T13:41:01.894Z,4
2019-06-20T13:42:02.098Z,4
2019-06-20T13:43:02.329Z,4
2019-06-20T13:44:01.813Z,4
2019-06-20T13:45:02.027Z,2
2019-06-20T13:46:02.238Z,3
2019-06-20T13:47:02.480Z,3
2019-06-20T13:48:01.613Z,3
2019-06-20T13:49:01.979Z,3
2019-06-20T13:50:02.262Z,3
2019-06-20T13:51:02.414Z,2
2019-06-20T13:52:02.681Z,2
2019-06-20T13:53:01.918Z,2
2019-06-20T13:54:02.161Z,2
2019-06-20T13:55:02.335Z,2
2019-06-20T13:56:02.638Z,2
2019-06-20T13:57:01.828Z,3
2019-06-20T13:58:02.051Z,2
2019-06-20T13:59:02.335Z,2
2019-06-20T14:00:03.591Z,2
2019-06-20T14:01:02.489Z,2
2019-06-20T14:02:07.276Z,2
2019-06-20T14:03:01.999Z,2
2019-06-20T14:04:02.204Z,3
2019-06-20T14:05:02.537Z,3
2019-06-20T14:06:01.703Z,3
2019-06-20T14:07:02.004Z,3
2019-06-20T14:08:02.138Z,3
2019-06-20T14:09:02.436Z,1
2019-06-20T14:10:02.614Z,3
2019-06-20T14:11:01.851Z,3
2019-06-20T14:12:02.148Z,3
2019-06-20T14:13:15.544Z,3
2019-06-20T14:14:06.242Z,3
2019-06-20T14:15:02.736Z,3
2019-06-20T14:16:01.896Z,5
2019-06-20T14:17:02.531Z,5
2019-06-20T14:18:02.160Z,5
2019-06-20T14:19:02.409Z,5
2019-06-20T14:20:01.929Z,5
2019-06-20T14:21:02.190Z,2
2019-06-20T14:22:02.181Z,4
2019-06-20T14:23:02.226Z,4
2019-06-20T14:24:02.474Z,4
2019-06-20T14:25:01.669Z,4
2019-06-20T14:26:01.871Z,4
2019-06-20T14:27:02.715Z,2
2019-06-20T14:28:02.309Z,4
2019-06-20T14:29:02.588Z,4
2019-06-20T14:30:01.985Z,4
2019-06-20T14:31:02.055Z,4
2019-06-20T14:32:02.266Z,4
2019-06-20T14:33:02.556Z,3
2019-06-20T14:34:01.817Z,4
2019-06-20T14:35:02.690Z,4
2019-06-20T14:36:01.868Z,4
2019-06-20T14:37:02.119Z,4
2019-06-20T14:38:02.339Z,4
2019-06-20T14:39:02.565Z,6